Time;durP1;ratioP1;P1;durP2;ratioP2;P2;SDS_P1;SDS_P2;PMS_P1;PMS_P2;Temp;Humidity;BMP_temperature;BMP_pressure;BME280_temperature;BME280_humidity;BME280_pressure;Samples;Min_cycle;Max_cycle;Signal;HPM_P1;HPM_P2
2023/05/06 00:01:57;;;;;;;0.77;0.50;;;;;;;7.44;35.85;102664.19;5038177;28;20079;-70
2023/05/06 00:04:22;;;;;;;2.70;0.60;;;;;;;7.61;35.31;102665.38;5039083;28;20086;-70
2023/05/06 00:06:47;;;;;;;1.65;0.50;;;;;;;7.43;35.44;102641.06;5054965;28;20563;-70
2023/05/06 00:09:13;;;;;;;1.38;0.70;;;;;;;7.50;35.76;102664.50;5055317;28;20162;-70
2023/05/06 00:11:38;;;;;;;5.22;0.90;;;;;;;7.18;36.46;102653.03;5054933;28;20031;-70
2023/05/06 00:14:04;;;;;;;1.10;0.60;;;;;;;7.00;37.05;102658.13;5056147;28;20036;-70
2023/05/06 00:16:30;;;;;;;1.08;0.70;;;;;;;7.12;36.97;102669.59;5054052;28;20036;-70
2023/05/06 00:18:55;;;;;;;1.88;1.02;;;;;;;7.14;37.23;102660.47;5055678;28;20024;-71
2023/05/06 00:21:21;;;;;;;1.02;0.47;;;;;;;7.11;37.16;102665.25;5054867;28;20056;-70
2023/05/06 00:23:46;;;;;;;3.65;0.70;;;;;;;7.23;36.90;102658.84;5040668;28;20036;-70
2023/05/06 00:26:12;;;;;;;0.50;0.47;;;;;;;7.25;36.63;102664.91;5065418;28;20040;-70
2023/05/06 00:28:37;;;;;;;0.93;0.77;;;;;;;6.93;37.76;102665.84;5040619;28;20025;-70
2023/05/06 00:31:03;;;;;;;1.40;0.70;;;;;;;6.91;37.44;102626.78;5058328;28;20021;-71
2023/05/06 00:33:29;;;;;;;3.15;1.25;;;;;;;6.85;37.95;102659.41;5039888;28;20052;-70
2023/05/06 00:35:54;;;;;;;1.17;0.70;;;;;;;6.69;38.51;102658.06;5056103;28;20025;-70
2023/05/06 00:38:20;;;;;;;1.58;0.73;;;;;;;6.85;38.07;102654.91;5056599;28;20029;-71
2023/05/06 00:40:45;;;;;;;0.95;0.55;;;;;;;6.48;39.28;102660.66;5039916;28;20032;-70
2023/05/06 00:43:11;;;;;;;1.08;0.80;;;;;;;6.76;38.75;102658.38;5041846;28;20033;-70
2023/05/06 00:45:37;;;;;;;1.33;0.70;;;;;;;6.30;39.90;102648.81;5060298;28;20039;-70
2023/05/06 00:48:04;;;;;;;1.35;0.70;;;;;;;6.25;40.54;102654.53;5044001;28;20099;-70
2023/05/06 00:50:31;;;;;;;0.90;0.50;;;;;;;6.24;39.77;102627.94;5061943;28;20040;-70
2023/05/06 00:52:58;;;;;;;0.90;0.60;;;;;;;6.43;39.96;102640.66;5060104;28;20039;-70
2023/05/06 00:55:23;;;;;;;1.17;0.60;;;;;;;6.31;40.39;102651.34;5059788;28;20037;-70
2023/05/06 00:57:50;;;;;;;3.88;0.68;;;;;;;6.04;40.53;102622.38;5059382;28;20043;-70
2023/05/06 01:00:17;;;;;;;1.85;0.70;;;;;;;6.16;40.69;102633.03;5059875;28;20040;-70
2023/05/06 01:02:42;;;;;;;0.80;0.60;;;;;;;6.18;40.83;102647.16;5059197;28;20040;-70
2023/05/06 01:05:08;;;;;;;2.33;0.60;;;;;;;6.29;40.80;102652.44;5059537;28;20054;-70
2023/05/06 01:07:49;;;;;;;1.55;0.88;;;;;;;5.88;41.74;102621.91;5061758;28;20486;-70
2023/05/06 01:10:51;;;;;;;1.98;0.90;;;;;;;6.05;42.54;102652.63;5060133;28;20025;-70
2023/05/06 01:13:35;;;;;;;1.95;0.70;;;;;;;6.02;41.66;102659.06;5059015;28;20037;-70
2023/05/06 01:16:03;;;;;;;2.67;0.65;;;;;;;6.13;40.87;102652.03;5060218;28;20035;-70
2023/05/06 01:18:31;;;;;;;1.40;0.50;;;;;;;5.84;42.56;102642.66;5042353;28;20078;-70
2023/05/06 01:20:58;;;;;;;1.00;0.70;;;;;;;6.05;41.80;102652.63;5058051;28;20315;-70
2023/05/06 01:23:24;;;;;;;1.15;0.60;;;;;;;5.70;42.24;102645.59;5058121;28;20510;-70
2023/05/06 01:25:49;;;;;;;0.70;0.60;;;;;;;5.57;42.93;102656.41;5057545;28;20028;-71
2023/05/06 01:28:15;;;;;;;3.80;0.70;;;;;;;5.60;43.26;102656.16;5060079;28;20763;-70
2023/05/06 01:30:54;;;;;;;1.42;0.75;;;;;;;5.86;43.45;102659.44;5058341;28;20037;-70
2023/05/06 01:33:45;;;;;;;1.10;0.50;;;;;;;5.46;45.55;102653.72;5057569;28;20502;-70
2023/05/06 01:36:13;;;;;;;1.42;0.60;;;;;;;5.57;44.37;102660.91;5059127;28;20052;-70
2023/05/06 01:38:42;;;;;;;2.80;0.70;;;;;;;5.52;44.81;102666.59;5059191;28;20036;-70
2023/05/06 01:41:12;;;;;;;1.30;0.60;;;;;;;5.63;44.38;102647.91;5060265;28;20500;-71
2023/05/06 01:43:41;;;;;;;2.10;0.80;;;;;;;5.50;45.43;102659.69;5061155;28;20537;-70
2023/05/06 01:46:12;;;;;;;1.58;0.85;;;;;;;5.64;44.37;102660.28;5058951;28;20025;-70
2023/05/06 01:48:38;;;;;;;2.63;0.90;;;;;;;5.74;44.45;102663.09;5068263;28;20028;-70
2023/05/06 01:51:04;;;;;;;0.60;0.55;;;;;;;5.39;46.18;102660.50;5055414;28;20078;-70
2023/05/06 01:53:31;;;;;;;1.67;0.80;;;;;;;5.56;46.00;102660.06;5056836;28;20032;-69
2023/05/06 01:55:57;;;;;;;1.98;0.98;;;;;;;5.53;45.28;102664.75;5078077;28;20032;-70
2023/05/06 01:58:22;;;;;;;2.63;0.90;;;;;;;5.37;46.83;102654.44;5079954;28;20078;-70
2023/05/06 02:00:48;;;;;;;1.90;0.82;;;;;;;5.10;47.48;102650.28;5061676;28;20055;-70
2023/05/06 02:03:13;;;;;;;1.25;0.70;;;;;;;5.49;45.91;102658.81;5060072;28;20028;-70
2023/05/06 02:05:39;;;;;;;2.00;0.73;;;;;;;5.34;46.71;102668.03;5078090;28;20120;-70
2023/05/06 02:08:04;;;;;;;1.23;0.70;;;;;;;5.26;47.13;102659.75;5077952;28;20417;-70
2023/05/06 02:10:30;;;;;;;2.22;0.90;;;;;;;5.53;46.15;102657.63;5078371;28;20025;-70
2023/05/06 02:12:56;;;;;;;1.27;0.80;;;;;;;5.14;47.44;102650.91;5059961;28;20164;-70
2023/05/06 02:15:21;;;;;;;2.08;0.90;;;;;;;5.02;47.71;102633.16;5076316;28;20031;-70
2023/05/06 02:17:46;;;;;;;2.30;1.00;;;;;;;5.25;47.18;102650.06;5078630;28;20028;-70
2023/05/06 02:20:12;;;;;;;1.90;0.70;;;;;;;5.27;46.97;102651.66;5079521;28;20112;-70
2023/05/06 02:22:37;;;;;;;1.45;0.80;;;;;;;4.88;50.10;102652.88;5066906;28;20036;-70
2023/05/06 02:25:03;;;;;;;5.85;0.85;;;;;;;5.13;48.25;102643.84;5081692;28;20037;-70
2023/05/06 02:27:28;;;;;;;2.42;0.80;;;;;;;4.88;48.93;102634.22;5077862;28;20038;-70
2023/05/06 02:29:54;;;;;;;1.38;0.93;;;;;;;4.67;50.12;102648.22;5079333;28;20050;-70
2023/05/06 02:32:19;;;;;;;3.05;0.85;;;;;;;4.87;48.91;102648.53;5062334;28;20044;-70
2023/05/06 02:34:45;;;;;;;3.75;0.93;;;;;;;4.58;50.17;102632.06;5078140;28;20032;-70
2023/05/06 02:37:10;;;;;;;2.40;1.15;;;;;;;4.78;50.58;102638.56;5085071;28;20052;-70
2023/05/06 02:39:36;;;;;;;2.90;0.98;;;;;;;4.86;50.11;102625.47;5087802;28;20410;-70
2023/05/06 02:42:01;;;;;;;1.73;0.88;;;;;;;5.02;49.76;102650.00;5078172;28;20032;-70
2023/05/06 02:44:27;;;;;;;1.92;0.70;;;;;;;5.12;48.57;102637.66;5078086;28;20054;-70
2023/05/06 02:46:52;;;;;;;2.50;1.10;;;;;;;5.19;48.26;102641.53;5076418;28;20039;-70
2023/05/06 02:49:18;;;;;;;1.60;1.00;;;;;;;4.97;49.63;102636.19;5079464;28;20189;-70
2023/05/06 02:51:43;;;;;;;1.38;0.85;;;;;;;4.95;49.92;102633.63;5061667;28;20027;-70
2023/05/06 02:54:09;;;;;;;3.28;0.90;;;;;;;5.07;49.43;102633.66;5044286;28;20025;-70
2023/05/06 02:56:35;;;;;;;1.67;0.90;;;;;;;4.82;51.15;102632.00;5073106;28;20105;-70
2023/05/06 02:59:00;;;;;;;1.45;0.95;;;;;;;4.95;50.49;102624.78;5079098;28;20502;-70
2023/05/06 03:01:26;;;;;;;2.38;0.90;;;;;;;4.85;50.94;102629.97;5078636;28;20028;-70
2023/05/06 03:03:51;;;;;;;4.10;1.02;;;;;;;4.96;49.99;102618.47;5077663;28;20036;-70
2023/05/06 03:06:17;;;;;;;1.00;0.73;;;;;;;5.00;50.52;102617.28;5076524;28;20028;-70
2023/05/06 03:08:43;;;;;;;2.20;0.93;;;;;;;4.70;51.33;102623.09;5082354;28;20039;-70
2023/05/06 03:11:08;;;;;;;1.27;0.90;;;;;;;4.89;50.83;102617.22;5077986;28;20032;-70
2023/05/06 03:13:33;;;;;;;3.20;0.95;;;;;;;4.84;50.71;102620.25;5077987;28;20024;-70
2023/05/06 03:15:59;;;;;;;1.45;0.90;;;;;;;4.96;50.46;102621.13;5077221;28;20491;-70
2023/05/06 03:18:24;;;;;;;1.92;0.77;;;;;;;5.17;49.39;102613.31;5077890;28;20041;-70
2023/05/06 03:20:50;;;;;;;2.35;0.90;;;;;;;5.21;49.44;102619.25;5084745;28;20043;-70
2023/05/06 03:23:15;;;;;;;1.98;0.70;;;;;;;5.01;50.05;102615.47;5051714;28;20112;-70
2023/05/06 03:25:41;;;;;;;1.13;0.70;;;;;;;4.85;51.26;102618.44;5078737;28;20248;-70
2023/05/06 03:28:06;;;;;;;2.25;1.08;;;;;;;4.88;51.59;102618.22;5078184;28;20028;-70
2023/05/06 03:30:32;;;;;;;1.45;0.77;;;;;;;4.80;51.30;102599.25;5057921;28;20095;-70
2023/05/06 03:33:00;;;;;;;3.13;0.73;;;;;;;4.55;52.49;102601.13;5077577;28;20028;-70
2023/05/06 03:35:26;;;;;;;1.13;0.77;;;;;;;4.92;51.30;102609.00;5077798;28;20112;-70
2023/05/06 03:37:51;;;;;;;3.40;0.70;;;;;;;4.76;51.56;102587.97;5077166;28;20052;-70
2023/05/06 03:40:17;;;;;;;0.90;0.60;;;;;;;4.85;51.46;102602.44;5076858;28;20039;-70
2023/05/06 03:42:43;;;;;;;2.47;0.95;;;;;;;5.39;49.66;102599.09;5077570;28;20052;-70
2023/05/06 03:45:09;;;;;;;1.50;0.70;;;;;;;4.99;50.89;102574.69;5078276;28;20028;-70
2023/05/06 03:47:34;;;;;;;2.97;0.90;;;;;;;4.87;51.00;102597.84;5060126;28;20074;-70
2023/05/06 03:50:00;;;;;;;1.50;0.70;;;;;;;5.42;49.61;102588.19;5060720;28;20364;-70
2023/05/06 03:52:25;;;;;;;2.67;0.95;;;;;;;6.51;46.25;102584.69;5076956;28;20494;-70
2023/05/06 03:54:51;;;;;;;1.88;0.77;;;;;;;6.96;45.12;102598.66;5073959;28;20082;-70
2023/05/06 03:57:16;;;;;;;1.40;0.75;;;;;;;6.62;44.91;102599.81;5076075;28;20025;-70
2023/05/06 03:59:42;;;;;;;1.58;0.90;;;;;;;7.15;43.38;102599.75;5078294;28;20165;-70
2023/05/06 04:02:07;;;;;;;1.77;0.80;;;;;;;7.20;43.58;102593.03;5078691;28;20025;-70
2023/05/06 04:04:33;;;;;;;0.95;0.70;;;;;;;7.88;41.76;102587.94;5077741;28;20029;-70
2023/05/06 04:06:59;;;;;;;6.28;1.02;;;;;;;8.06;41.91;102606.00;5079213;28;20483;-70
2023/05/06 04:09:25;;;;;;;2.70;0.88;;;;;;;8.61;40.89;102590.25;5079260;28;20062;-70
2023/05/06 04:11:51;;;;;;;2.55;0.82;;;;;;;8.97;40.39;102601.22;5076068;28;20025;-70
2023/05/06 04:14:16;;;;;;;1.30;0.70;;;;;;;7.89;41.66;102604.84;5074559;28;20107;-70
2023/05/06 04:16:42;;;;;;;4.32;0.80;;;;;;;8.15;40.87;102599.81;5078025;28;20052;-70
2023/05/06 04:19:07;;;;;;;2.13;0.75;;;;;;;9.06;39.30;102597.69;5084352;28;20032;-69
2023/05/06 04:21:33;;;;;;;0.90;0.70;;;;;;;9.72;38.76;102600.25;5080553;28;20057;-70
2023/05/06 04:23:58;;;;;;;3.55;1.02;;;;;;;9.07;38.30;102594.88;5061760;28;20041;-70
2023/05/06 04:26:24;;;;;;;2.33;0.88;;;;;;;8.75;38.78;102603.25;5078681;28;20035;-69
2023/05/06 04:28:49;;;;;;;2.83;1.05;;;;;;;9.08;39.12;102601.06;5076982;28;20024;-70
2023/05/06 04:31:15;;;;;;;1.38;0.70;;;;;;;9.18;38.70;102575.03;5076619;28;20042;-70
2023/05/06 04:33:40;;;;;;;3.40;0.70;;;;;;;8.87;38.69;102599.44;5061117;28;20032;-70
2023/05/06 04:36:07;;;;;;;1.48;0.68;;;;;;;9.32;38.60;102611.31;5076844;28;20039;-70
2023/05/06 04:38:34;;;;;;;2.47;0.80;;;;;;;9.32;38.26;102592.50;5061365;28;20021;-70
2023/05/06 04:41:00;;;;;;;2.55;1.00;;;;;;;9.32;38.16;102604.09;5078455;28;20052;-70
2023/05/06 04:43:26;;;;;;;1.63;0.68;;;;;;;9.83;37.38;102594.69;5078786;28;20121;-70
2023/05/06 04:45:53;;;;;;;1.45;0.70;;;;;;;10.00;37.40;102609.16;5077800;28;20165;-69
2023/05/06 04:48:21;;;;;;;3.65;0.88;;;;;;;10.04;37.06;102598.94;5077700;28;20111;-70
2023/05/06 04:50:47;;;;;;;1.33;0.60;;;;;;;10.19;36.62;102610.00;5077492;28;20032;-70
2023/05/06 04:53:13;;;;;;;1.90;0.90;;;;;;;11.05;35.65;102603.03;5077935;28;20496;-70
2023/05/06 04:55:39;;;;;;;1.70;0.90;;;;;;;10.11;36.52;102587.41;5069019;28;20091;-70
2023/05/06 04:58:04;;;;;;;1.92;0.80;;;;;;;10.97;36.24;102602.16;5057976;28;20545;-70
2023/05/06 05:00:30;;;;;;;1.58;0.70;;;;;;;9.96;36.73;102588.91;5052484;28;20144;-70
2023/05/06 05:02:55;;;;;;;1.67;0.70;;;;;;;9.86;37.24;102606.97;5057770;28;20028;-70
2023/05/06 05:05:21;;;;;;;1.65;0.77;;;;;;;9.01;37.89;102610.72;5063003;28;20083;-69
2023/05/06 05:07:46;;;;;;;1.60;0.90;;;;;;;10.01;38.01;102608.16;5064741;28;20033;-70
2023/05/06 05:10:12;;;;;;;1.20;0.90;;;;;;;10.06;36.74;102603.16;5056536;28;20021;-70
2023/05/06 05:12:38;;;;;;;1.00;0.70;;;;;;;10.14;37.92;102612.34;5040287;28;20044;-69
2023/05/06 05:15:04;;;;;;;2.33;0.68;;;;;;;10.93;36.31;102612.41;5058737;28;20029;-69
2023/05/06 05:17:30;;;;;;;1.60;0.68;;;;;;;10.88;36.42;102611.19;5057418;28;20060;-70
2023/05/06 05:19:55;;;;;;;1.92;0.80;;;;;;;10.69;36.40;102615.72;5056853;28;20040;-72
2023/05/06 05:22:21;;;;;;;2.03;0.80;;;;;;;11.23;35.74;102618.34;5056563;28;20455;-70
2023/05/06 05:24:46;;;;;;;0.98;0.70;;;;;;;11.11;35.79;102598.88;5058058;28;20116;-70
2023/05/06 05:27:12;;;;;;;2.67;0.75;;;;;;;9.98;37.48;102616.53;5040574;28;20147;-70
2023/05/06 05:29:37;;;;;;;1.73;0.60;;;;;;;8.96;39.99;102608.44;5043223;28;20040;-70
2023/05/06 05:32:03;;;;;;;0.95;0.80;;;;;;;8.60;41.14;102615.41;5059414;28;20037;-69
2023/05/06 05:34:29;;;;;;;2.33;0.80;;;;;;;8.38;40.82;102612.03;5060236;28;20035;-70
2023/05/06 05:36:56;;;;;;;1.90;0.85;;;;;;;8.50;41.30;102612.72;5059368;28;20033;-72
2023/05/06 05:39:21;;;;;;;1.77;1.00;;;;;;;8.43;41.54;102601.69;5043930;28;20043;-71
2023/05/06 05:41:47;;;;;;;2.47;1.00;;;;;;;8.21;41.78;102618.00;5059446;28;20029;-72
2023/05/06 05:44:12;;;;;;;2.58;0.70;;;;;;;8.19;41.99;102617.31;5058547;28;20396;-69
2023/05/06 05:46:38;;;;;;;2.53;0.70;;;;;;;7.91;42.95;102598.38;5041715;28;20054;-69
2023/05/06 05:49:03;;;;;;;1.38;0.60;;;;;;;8.63;41.48;102620.47;5042286;28;20040;-69
2023/05/06 05:51:28;;;;;;;1.42;0.80;;;;;;;8.22;42.26;102615.22;5059943;28;20029;-69
2023/05/06 05:53:54;;;;;;;1.75;0.52;;;;;;;8.34;41.95;102594.44;5065729;28;20039;-69
2023/05/06 05:56:20;;;;;;;1.67;0.60;;;;;;;8.46;41.99;102593.38;5058566;28;20395;-69
2023/05/06 05:58:46;;;;;;;2.33;0.70;;;;;;;8.69;42.08;102619.91;5040490;28;20098;-70
2023/05/06 06:01:11;;;;;;;1.83;0.70;;;;;;;8.36;42.34;102592.50;5055136;28;20845;-69
2023/05/06 06:03:37;;;;;;;2.67;0.80;;;;;;;9.23;40.93;102615.72;5039054;28;20096;-69
2023/05/06 06:06:03;;;;;;;1.55;0.80;;;;;;;8.22;42.77;102611.69;5057009;28;20431;-69
2023/05/06 06:08:30;;;;;;;2.35;0.68;;;;;;;8.54;42.30;102599.84;5041086;28;20032;-68
2023/05/06 06:10:55;;;;;;;1.77;0.73;;;;;;;8.87;41.92;102620.03;5059044;28;20021;-68
2023/05/06 06:13:21;;;;;;;1.38;0.88;;;;;;;8.19;43.53;102614.66;5041671;28;20029;-69
2023/05/06 06:15:46;;;;;;;3.20;0.82;;;;;;;7.93;43.50;102612.47;5041071;28;20033;-69
2023/05/06 06:18:12;;;;;;;2.33;0.80;;;;;;;8.06;43.92;102597.97;5040798;28;20017;-69
2023/05/06 06:20:37;;;;;;;2.63;0.70;;;;;;;8.61;42.95;102611.72;5056754;28;20041;-69
2023/05/06 06:23:03;;;;;;;1.83;0.80;;;;;;;9.10;42.17;102607.13;5041442;28;20036;-69
2023/05/06 06:25:28;;;;;;;6.10;0.80;;;;;;;9.29;41.69;102608.91;5040765;28;20021;-70
2023/05/06 06:27:54;;;;;;;6.00;0.70;;;;;;;9.45;41.57;102595.72;5057110;28;20048;-69
2023/05/06 06:30:20;;;;;;;1.58;1.00;;;;;;;9.07;42.29;102600.22;5058709;28;20025;-69
2023/05/06 06:32:52;;;;;;;2.97;0.80;;;;;;;9.12;42.13;102597.09;5057430;28;20025;-68
2023/05/06 06:35:19;;;;;;;2.55;0.70;;;;;;;9.30;41.43;102517.44;5057792;28;20028;-70
2023/05/06 06:37:45;;;;;;;2.08;0.70;;;;;;;9.22;42.40;102589.84;5057099;28;20055;-69
2023/05/06 06:40:11;;;;;;;2.15;0.80;;;;;;;9.49;41.44;102582.81;5039980;28;20025;-68
2023/05/06 06:42:36;;;;;;;5.18;1.10;;;;;;;8.83;42.87;102584.56;5057031;28;20029;-72
2023/05/06 06:45:02;;;;;;;1.60;0.70;;;;;;;9.53;41.62;102589.59;5057847;28;20377;-68
2023/05/06 06:47:28;;;;;;;1.67;0.80;;;;;;;9.63;41.31;102574.25;5056831;28;20527;-71
2023/05/06 06:49:53;;;;;;;1.52;0.70;;;;;;;9.59;41.04;102575.56;5040515;28;20033;-70
2023/05/06 06:52:19;;;;;;;1.67;0.80;;;;;;;9.80;41.12;102588.75;5038913;28;20579;-70
2023/05/06 06:54:44;;;;;;;3.22;0.85;;;;;;;9.99;41.59;102593.16;5039921;28;20025;-70
2023/05/06 06:57:10;;;;;;;2.13;0.90;;;;;;;9.36;41.67;102588.53;5060557;28;20089;-70
2023/05/06 06:59:35;;;;;;;2.85;1.13;;;;;;;8.93;42.18;102563.94;5069800;28;20028;-69
2023/05/06 07:02:01;;;;;;;1.33;0.77;;;;;;;9.30;42.37;102589.97;5059975;28;20114;-69
2023/05/06 07:04:26;;;;;;;2.05;0.80;;;;;;;9.14;42.18;102571.78;5051971;28;20078;-69
2023/05/06 07:06:52;;;;;;;1.02;0.60;;;;;;;9.49;41.95;102586.34;5038424;28;20132;-69
2023/05/06 07:09:17;;;;;;;4.75;0.80;;;;;;;9.86;41.08;102586.28;5057267;28;20056;-69
2023/05/06 07:11:44;;;;;;;1.02;0.65;;;;;;;9.28;41.77;102581.22;5057430;28;20036;-69
2023/05/06 07:14:10;;;;;;;3.65;1.27;;;;;;;9.58;41.97;102593.53;5057746;28;20048;-69
2023/05/06 07:16:36;;;;;;;4.55;0.80;;;;;;;10.08;40.92;102576.13;5059085;28;20095;-69
2023/05/06 07:19:01;;;;;;;0.85;0.80;;;;;;;9.63;40.80;102558.13;5065316;28;20029;-69
2023/05/06 07:21:27;;;;;;;0.90;0.63;;;;;;;10.10;41.11;102576.81;5057867;28;20103;-69
2023/05/06 07:23:52;;;;;;;2.63;1.20;;;;;;;10.28;40.50;102580.38;5052102;28;20024;-71
2023/05/06 07:26:18;;;;;;;0.90;0.65;;;;;;;10.01;40.54;102569.66;5057169;28;20021;-70
2023/05/06 07:28:43;;;;;;;3.45;0.85;;;;;;;10.07;40.94;102553.75;5057000;28;20036;-69
2023/05/06 07:31:09;;;;;;;1.88;0.85;;;;;;;9.85;40.96;102560.41;5057280;28;20035;-69
2023/05/06 07:33:34;;;;;;;2.35;0.80;;;;;;;9.88;40.96;102560.09;5056266;28;20036;-69
2023/05/06 07:36:00;;;;;;;3.55;0.93;;;;;;;9.96;41.32;102583.53;5054823;28;20052;-69
2023/05/06 07:38:26;;;;;;;2.75;0.75;;;;;;;10.59;39.89;102579.97;5052952;28;20029;-69
2023/05/06 07:40:51;;;;;;;1.42;0.50;;;;;;;10.21;40.04;102576.59;5057298;28;20033;-68
2023/05/06 07:43:17;;;;;;;3.72;0.60;;;;;;;10.34;40.70;102571.69;5071088;28;20460;-69
2023/05/06 07:45:42;;;;;;;1.45;0.80;;;;;;;10.89;39.50;102581.38;5059411;28;20392;-68
2023/05/06 07:48:08;;;;;;;1.88;0.77;;;;;;;10.98;39.61;102588.53;5053934;28;20033;-69
2023/05/06 07:50:33;;;;;;;1.40;0.80;;;;;;;11.60;38.58;102584.81;5039837;28;20025;-69
2023/05/06 07:52:59;;;;;;;3.10;0.80;;;;;;;11.45;38.25;102576.50;5054908;28;20024;-69
2023/05/06 07:55:25;;;;;;;2.15;0.70;;;;;;;10.84;39.67;102578.31;5057233;28;20036;-70
2023/05/06 07:57:50;;;;;;;2.72;1.40;;;;;;;10.98;38.61;102585.81;5058456;28;20039;-69
2023/05/06 08:00:16;;;;;;;2.50;0.80;;;;;;;10.51;39.18;102561.91;5057861;28;20032;-69
2023/05/06 08:02:46;;;;;;;1.52;0.80;;;;;;;10.74;38.94;102583.81;5059885;28;20033;-69
2023/05/06 08:05:12;;;;;;;1.92;0.70;;;;;;;11.16;38.95;102579.53;5041073;28;20035;-69
2023/05/06 08:07:41;;;;;;;4.70;1.20;;;;;;;11.53;38.29;102577.38;5039145;28;20082;-69
2023/05/06 08:10:08;;;;;;;1.80;0.70;;;;;;;11.76;37.66;102553.38;5054066;28;20510;-70
2023/05/06 08:12:34;;;;;;;1.50;0.80;;;;;;;11.41;37.83;102569.75;5064558;28;20379;-70
2023/05/06 08:15:00;;;;;;;2.05;0.73;;;;;;;10.92;37.74;102553.28;5057914;28;20032;-69
2023/05/06 08:17:26;;;;;;;3.88;0.80;;;;;;;10.94;37.89;102567.47;5058655;28;20040;-69
2023/05/06 08:19:51;;;;;;;1.25;0.70;;;;;;;11.69;37.57;102568.50;5057782;28;20037;-70
2023/05/06 08:22:17;;;;;;;1.90;0.85;;;;;;;11.87;37.47;102570.28;5037200;28;20025;-69
2023/05/06 08:24:42;;;;;;;1.80;0.77;;;;;;;11.80;37.21;102548.47;5055206;28;20033;-68
2023/05/06 08:27:08;;;;;;;2.92;0.88;;;;;;;11.33;38.17;102572.41;5055708;28;20051;-70
2023/05/06 08:29:33;;;;;;;1.73;0.82;;;;;;;11.16;38.16;102572.31;5056996;28;20100;-70
2023/05/06 08:31:59;;;;;;;1.83;0.80;;;;;;;11.98;36.90;102578.88;5057879;28;20025;-70
2023/05/06 08:34:24;;;;;;;2.75;0.70;;;;;;;11.86;36.74;102574.84;5056377;28;20037;-69
2023/05/06 08:36:50;;;;;;;2.25;0.80;;;;;;;11.47;37.88;102574.50;5040055;28;20044;-69
2023/05/06 08:39:16;;;;;;;3.63;0.80;;;;;;;11.27;37.59;102577.41;5041392;28;20099;-70
2023/05/06 08:41:47;;;;;;;1.20;0.70;;;;;;;11.88;36.64;102563.88;5055433;28;20084;-70
2023/05/06 08:44:16;;;;;;;3.85;0.98;;;;;;;11.67;36.80;102548.94;5055199;28;20032;-70
2023/05/06 08:46:42;;;;;;;1.10;0.68;;;;;;;12.26;36.37;102567.84;5055038;28;20029;-70
2023/05/06 08:49:08;;;;;;;1.38;0.93;;;;;;;12.70;36.06;102562.09;5055824;28;20511;-70
2023/05/06 08:51:34;;;;;;;4.47;0.80;;;;;;;12.32;35.04;102547.44;5057026;28;20449;-70
2023/05/06 08:54:03;;;;;;;4.38;0.70;;;;;;;13.20;35.16;102577.19;5057616;28;20108;-70
2023/05/06 08:56:32;;;;;;;3.90;0.88;;;;;;;12.61;35.17;102573.91;5055934;28;20025;-70
2023/05/06 08:58:58;;;;;;;3.85;0.95;;;;;;;12.25;35.49;102570.69;5055843;28;20060;-70
2023/05/06 09:01:27;;;;;;;2.80;0.70;;;;;;;12.54;35.39;102571.03;5060483;28;20059;-70
2023/05/06 09:03:57;;;;;;;1.58;0.70;;;;;;;12.71;34.98;102569.16;5058662;28;20055;-71
2023/05/06 09:06:23;;;;;;;2.83;1.05;;;;;;;13.30;34.96;102564.34;5059186;28;20033;-71
2023/05/06 09:08:49;;;;;;;1.10;0.80;;;;;;;12.61;35.08;102561.25;5055939;28;20037;-70
2023/05/06 09:11:23;;;;;;;2.50;0.70;;;;;;;13.50;34.21;102564.78;5058183;28;20021;-71
2023/05/06 09:13:50;;;;;;;2.58;0.70;;;;;;;13.42;33.45;102561.28;5059740;28;20035;-70
2023/05/06 09:16:29;;;;;;;4.13;0.82;;;;;;;13.38;33.54;102560.81;5060653;28;20094;-71
2023/05/06 09:18:55;;;;;;;4.25;0.85;;;;;;;13.32;33.27;102570.44;5059132;28;20036;-70
2023/05/06 09:21:28;;;;;;;2.33;0.75;;;;;;;13.12;33.07;102569.13;5058842;28;20055;-71
2023/05/06 09:23:53;;;;;;;3.75;1.70;;;;;;;13.82;32.71;102562.97;5056834;28;20044;-70
2023/05/06 09:26:22;;;;;;;3.22;1.40;;;;;;;14.18;32.82;102562.41;5058783;28;20033;-71
2023/05/06 09:28:47;;;;;;;2.40;0.70;;;;;;;13.50;33.22;102559.38;5059177;28;20051;-70
2023/05/06 09:31:14;;;;;;;1.77;0.82;;;;;;;13.09;33.60;102556.78;5056940;28;20037;-70
2023/05/06 09:33:40;;;;;;;3.72;0.90;;;;;;;13.89;33.25;102557.69;5059298;28;20098;-71
2023/05/06 09:36:06;;;;;;;1.40;0.82;;;;;;;14.13;32.01;102553.97;5060459;28;20036;-71
2023/05/06 09:38:31;;;;;;;1.40;0.82;;;;;;;14.72;31.70;102546.06;5060404;28;20511;-71
2023/05/06 09:40:57;;;;;;;1.83;0.85;;;;;;;14.79;31.58;102544.28;5058070;28;20526;-71
2023/05/06 09:43:23;;;;;;;2.35;0.93;;;;;;;14.91;31.70;102531.16;5041490;28;20115;-71
2023/05/06 09:45:49;;;;;;;1.45;0.80;;;;;;;14.37;30.17;102539.38;5073638;28;20038;-71
2023/05/06 09:48:15;;;;;;;2.75;0.75;;;;;;;14.14;31.10;102536.69;5060717;28;20028;-70
2023/05/06 09:50:42;;;;;;;2.30;0.90;;;;;;;15.04;30.97;102536.75;5077999;28;20038;-71
2023/05/06 09:53:11;;;;;;;0.77;0.65;;;;;;;15.36;30.52;102513.81;5077683;28;20050;-71
2023/05/06 09:55:36;;;;;;;1.10;0.75;;;;;;;15.49;30.41;102534.84;5077634;28;20376;-71
2023/05/06 09:58:03;;;;;;;2.08;0.80;;;;;;;15.32;30.61;102534.22;5076867;28;20025;-71
2023/05/06 10:00:30;;;;;;;2.42;0.90;;;;;;;15.02;30.19;102522.53;5061515;28;20043;-70
2023/05/06 10:02:57;;;;;;;2.08;1.00;;;;;;;15.58;30.88;102528.28;5078406;28;20032;-71
2023/05/06 10:05:25;;;;;;;1.95;1.15;;;;;;;15.64;29.56;102527.53;5079299;28;20028;-71
2023/05/06 10:07:52;;;;;;;7.22;1.40;;;;;;;15.56;30.32;102527.63;5077939;28;20553;-71
2023/05/06 10:10:18;;;;;;;3.58;1.60;;;;;;;15.62;29.86;102523.31;5077414;28;20027;-71
2023/05/06 10:12:44;;;;;;;3.50;1.25;;;;;;;15.98;29.93;102526.88;5078445;28;20024;-70
2023/05/06 10:15:10;;;;;;;4.13;1.23;;;;;;;15.51;29.77;102516.53;5087372;28;20032;-71
2023/05/06 10:17:38;;;;;;;2.22;1.20;;;;;;;16.17;29.79;102528.13;5078840;28;20035;-71
2023/05/06 10:20:08;;;;;;;3.33;0.75;;;;;;;15.70;28.94;102520.53;5079211;28;20341;-71
2023/05/06 10:23:02;;;;;;;4.68;0.88;;;;;;;14.71;29.31;102525.41;5077542;28;20411;-71
2023/05/06 10:25:50;;;;;;;2.08;1.10;;;;;;;15.63;29.56;102525.00;5051413;28;20090;-71
2023/05/06 10:28:17;;;;;;;6.72;1.30;;;;;;;15.63;29.55;102531.28;5078256;28;20036;-71
2023/05/06 10:30:44;;;;;;;1.75;0.90;;;;;;;15.82;29.83;102529.84;5079300;28;20090;-71
2023/05/06 10:33:11;;;;;;;2.75;0.88;;;;;;;15.83;29.35;102515.25;5079430;28;20100;-71
2023/05/06 10:35:43;;;;;;;1.65;1.00;;;;;;;15.22;29.70;102515.50;5061777;28;20617;-71
2023/05/06 10:38:13;;;;;;;2.15;0.80;;;;;;;14.67;29.23;102524.09;5078786;28;20028;-71
2023/05/06 10:40:39;;;;;;;4.78;0.88;;;;;;;14.86;29.39;102525.41;5078387;28;20029;-70
2023/05/06 10:43:30;;;;;;;2.75;0.82;;;;;;;14.79;29.95;102523.44;5078015;28;20048;-70
2023/05/06 10:46:03;;;;;;;1.98;0.70;;;;;;;14.88;29.45;102482.72;5074885;28;20028;-71
2023/05/06 10:48:29;;;;;;;1.75;0.75;;;;;;;14.65;29.82;102504.47;5076068;28;20024;-70
2023/05/06 10:51:16;;;;;;;0.90;0.70;;;;;;;14.58;30.00;102501.66;5076101;28;20039;-71
2023/05/06 10:54:01;;;;;;;2.85;0.90;;;;;;;15.67;29.28;102502.75;5078490;28;20040;-71
2023/05/06 10:56:27;;;;;;;;;;;;;;;15.83;28.89;102506.28;5078449;28;20108;-71
2023/05/06 10:58:54;;;;;;;2.05;0.82;;;;;;;16.52;28.65;102506.47;5078454;28;19995;-71
2023/05/06 11:01:21;;;;;;;1.98;0.98;;;;;;;16.45;28.42;102501.00;5077175;28;20048;-71
2023/05/06 11:03:49;;;;;;;2.88;0.90;;;;;;;16.08;29.20;102499.41;5075569;28;20035;-71
2023/05/06 11:06:32;;;;;;;2.42;0.90;;;;;;;16.58;28.48;102491.28;5077367;28;20032;-71
2023/05/06 11:08:59;;;;;;;1.88;0.70;;;;;;;16.09;28.31;102502.97;5079512;28;20054;-71
2023/05/06 11:12:00;;;;;;;2.10;0.82;;;;;;;15.89;28.76;102494.63;5057364;28;20020;-70
2023/05/06 11:14:27;;;;;;;2.15;0.80;;;;;;;16.91;28.58;102497.78;5077735;28;20479;-71
2023/05/06 11:16:55;;;;;;;2.33;1.20;;;;;;;17.26;28.14;102500.50;5079350;28;20051;-70
2023/05/06 11:19:32;;;;;;;2.28;0.88;;;;;;;17.07;27.83;102474.03;5059028;28;20101;-70
2023/05/06 11:22:00;;;;;;;4.60;0.90;;;;;;;17.19;27.43;102486.03;5055757;28;20059;-70
2023/05/06 11:24:26;;;;;;;2.83;0.80;;;;;;;16.76;28.22;102491.66;5056370;28;20029;-71
2023/05/06 11:26:53;;;;;;;1.90;0.90;;;;;;;16.91;27.91;102489.63;5054812;28;20057;-71
2023/05/06 11:29:19;;;;;;;2.58;1.08;;;;;;;16.40;28.13;102489.06;5057373;28;20052;-71